sensor_id;sensor_type;location;lat;lon;timestamp;temperature;humidity
77693;SHT31;66984;47.404;18.836;2023-03-14T00:59:08;9.15;54.60
77693;SHT31;66984;47.404;18.836;2023-03-14T01:00:11;9.12;54.54
77693;SHT31;66984;47.404;18.836;2023-03-14T01:01:17;9.09;54.60
77693;SHT31;66984;47.404;18.836;2023-03-14T01:02:20;9.09;54.79
77693;SHT31;66984;47.404;18.836;2023-03-14T01:03:23;9.05;54.76
77693;SHT31;66984;47.404;18.836;2023-03-14T01:04:26;9.02;54.72
77693;SHT31;66984;47.404;18.836;2023-03-14T01:05:29;8.95;54.89
77693;SHT31;66984;47.404;18.836;2023-03-14T01:06:32;8.98;54.88
77693;SHT31;66984;47.404;18.836;2023-03-14T01:07:37;8.93;54.93
77693;SHT31;66984;47.404;18.836;2023-03-14T01:08:41;8.95;54.95
77693;SHT31;66984;47.404;18.836;2023-03-14T01:09:43;8.97;54.94
77693;SHT31;66984;47.404;18.836;2023-03-14T01:10:46;8.92;55.05
77693;SHT31;66984;47.404;18.836;2023-03-14T01:11:49;8.82;55.22
77693;SHT31;66984;47.404;18.836;2023-03-14T01:12:52;8.78;55.41
77693;SHT31;66984;47.404;18.836;2023-03-14T01:13:55;8.82;55.56
77693;SHT31;66984;47.404;18.836;2023-03-14T01:14:58;8.81;55.37
77693;SHT31;66984;47.404;18.836;2023-03-14T01:16:06;8.77;55.50
77693;SHT31;66984;47.404;18.836;2023-03-14T01:17:09;8.75;55.53
77693;SHT31;66984;47.404;18.836;2023-03-14T01:18:12;8.72;55.68
77693;SHT31;66984;47.404;18.836;2023-03-14T01:19:14;8.75;55.63
77693;SHT31;66984;47.404;18.836;2023-03-14T01:20:17;8.70;55.67
77693;SHT31;66984;47.404;18.836;2023-03-14T01:21:23;8.68;55.72
77693;SHT31;66984;47.404;18.836;2023-03-14T01:22:26;8.60;56.05
77693;SHT31;66984;47.404;18.836;2023-03-14T01:23:29;8.61;56.11
77693;SHT31;66984;47.404;18.836;2023-03-14T01:24:31;8.63;56.02
77693;SHT31;66984;47.404;18.836;2023-03-14T01:25:34;8.65;56.19
77693;SHT31;66984;47.404;18.836;2023-03-14T01:26:42;8.67;55.99
77693;SHT31;66984;47.404;18.836;2023-03-14T01:27:45;8.71;55.78
77693;SHT31;66984;47.404;18.836;2023-03-14T01:28:49;8.71;55.92
77693;SHT31;66984;47.404;18.836;2023-03-14T01:29:54;8.70;56.00
77693;SHT31;66984;47.404;18.836;2023-03-14T01:31:03;8.70;56.10
77693;SHT31;66984;47.404;18.836;2023-03-14T01:32:05;8.72;55.92
77693;SHT31;66984;47.404;18.836;2023-03-14T01:33:09;8.75;55.86
77693;SHT31;66984;47.404;18.836;2023-03-14T01:34:13;8.79;55.84
77693;SHT31;66984;47.404;18.836;2023-03-14T01:35:16;8.81;55.71
77693;SHT31;66984;47.404;18.836;2023-03-14T01:36:19;8.84;55.87
77693;SHT31;66984;47.404;18.836;2023-03-14T01:37:22;8.87;55.76
77693;SHT31;66984;47.404;18.836;2023-03-14T01:38:24;8.82;55.77
77693;SHT31;66984;47.404;18.836;2023-03-14T01:39:27;8.85;55.75
77693;SHT31;66984;47.404;18.836;2023-03-14T01:40:30;8.84;55.89
77693;SHT31;66984;47.404;18.836;2023-03-14T01:41:33;8.89;55.83
77693;SHT31;66984;47.404;18.836;2023-03-14T01:42:36;8.93;55.80
77693;SHT31;66984;47.404;18.836;2023-03-14T01:43:38;8.89;55.76
77693;SHT31;66984;47.404;18.836;2023-03-14T01:44:54;8.91;55.83
77693;SHT31;66984;47.404;18.836;2023-03-14T01:47:06;8.93;55.70
77693;SHT31;66984;47.404;18.836;2023-03-14T01:48:09;8.97;55.50
77693;SHT31;66984;47.404;18.836;2023-03-14T01:50:23;8.97;55.64
77693;SHT31;66984;47.404;18.836;2023-03-14T01:51:36;8.98;55.50
77693;SHT31;66984;47.404;18.836;2023-03-14T01:52:45;8.97;55.47
77693;SHT31;66984;47.404;18.836;2023-03-14T01:53:50;8.98;55.52
77693;SHT31;66984;47.404;18.836;2023-03-14T01:55:16;8.92;55.38
77693;SHT31;66984;47.404;18.836;2023-03-14T01:56:20;8.91;55.53
77693;SHT31;66984;47.404;18.836;2023-03-14T01:57:32;8.89;55.62
77693;SHT31;66984;47.404;18.836;2023-03-14T01:58:35;8.85;55.63
77693;SHT31;66984;47.404;18.836;2023-03-14T01:59:43;8.70;55.98
77693;SHT31;66984;47.404;18.836;2023-03-14T02:00:48;8.58;56.36
77693;SHT31;66984;47.404;18.836;2023-03-14T02:01:51;8.60;56.49
77693;SHT31;66984;47.404;18.836;2023-03-14T02:02:58;8.61;56.48
77693;SHT31;66984;47.404;18.836;2023-03-14T02:04:03;8.63;56.45
77693;SHT31;66984;47.404;18.836;2023-03-14T02:05:08;8.57;56.62
77693;SHT31;66984;47.404;18.836;2023-03-14T02:06:14;8.58;56.80
77693;SHT31;66984;47.404;18.836;2023-03-14T02:07:37;8.57;56.78
77693;SHT31;66984;47.404;18.836;2023-03-14T02:08:43;8.51;57.13
77693;SHT31;66984;47.404;18.836;2023-03-14T02:09:50;8.51;57.27
77693;SHT31;66984;47.404;18.836;2023-03-14T02:10:53;8.49;57.22
77693;SHT31;66984;47.404;18.836;2023-03-14T02:11:56;8.49;57.27
77693;SHT31;66984;47.404;18.836;2023-03-14T02:13:02;8.46;57.34
77693;SHT31;66984;47.404;18.836;2023-03-14T02:14:07;8.49;57.20
77693;SHT31;66984;47.404;18.836;2023-03-14T02:15:15;8.44;57.37
77693;SHT31;66984;47.404;18.836;2023-03-14T02:16:18;8.47;57.40
77693;SHT31;66984;47.404;18.836;2023-03-14T02:17:22;8.47;57.31
77693;SHT31;66984;47.404;18.836;2023-03-14T02:18:26;8.44;57.26
77693;SHT31;66984;47.404;18.836;2023-03-14T02:22:10;8.41;57.44
77693;SHT31;66984;47.404;18.836;2023-03-14T02:23:15;8.36;57.55
77693;SHT31;66984;47.404;18.836;2023-03-14T02:24:30;8.37;57.53
77693;SHT31;66984;47.404;18.836;2023-03-14T02:25:58;8.33;57.63
77693;SHT31;66984;47.404;18.836;2023-03-14T02:28:14;8.25;57.82
77693;SHT31;66984;47.404;18.836;2023-03-14T02:29:17;8.28;57.83
77693;SHT31;66984;47.404;18.836;2023-03-14T02:30:26;8.23;57.95
77693;SHT31;66984;47.404;18.836;2023-03-14T02:31:29;8.23;57.94
77693;SHT31;66984;47.404;18.836;2023-03-14T02:32:34;8.29;57.91
77693;SHT31;66984;47.404;18.836;2023-03-14T02:33:38;8.28;58.02
77693;SHT31;66984;47.404;18.836;2023-03-14T02:34:43;8.22;58.05
77693;SHT31;66984;47.404;18.836;2023-03-14T02:35:58;8.28;57.96
77693;SHT31;66984;47.404;18.836;2023-03-14T02:37:02;8.22;58.25
77693;SHT31;66984;47.404;18.836;2023-03-14T02:38:26;8.23;58.26
77693;SHT31;66984;47.404;18.836;2023-03-14T02:39:39;8.20;58.39
77693;SHT31;66984;47.404;18.836;2023-03-14T02:40:42;8.20;58.29
77693;SHT31;66984;47.404;18.836;2023-03-14T02:41:44;8.22;58.23
77693;SHT31;66984;47.404;18.836;2023-03-14T02:42:48;8.22;58.20
77693;SHT31;66984;47.404;18.836;2023-03-14T02:43:51;8.25;58.25
77693;SHT31;66984;47.404;18.836;2023-03-14T02:44:59;8.29;58.19
77693;SHT31;66984;47.404;18.836;2023-03-14T02:46:05;8.26;58.21
77693;SHT31;66984;47.404;18.836;2023-03-14T02:47:08;8.30;58.23
77693;SHT31;66984;47.404;18.836;2023-03-14T02:48:16;8.34;58.09
77693;SHT31;66984;47.404;18.836;2023-03-14T02:49:20;8.39;58.09
77693;SHT31;66984;47.404;18.836;2023-03-14T02:50:26;8.40;58.10
77693;SHT31;66984;47.404;18.836;2023-03-14T02:51:32;8.44;58.10
77693;SHT31;66984;47.404;18.836;2023-03-14T02:52:35;8.47;57.99
77693;SHT31;66984;47.404;18.836;2023-03-14T02:53:38;8.53;57.88
77693;SHT31;66984;47.404;18.836;2023-03-14T02:54:40;8.56;57.58
77693;SHT31;66984;47.404;18.836;2023-03-14T02:55:50;8.60;57.68
77693;SHT31;66984;47.404;18.836;2023-03-14T02:56:52;8.58;57.60
77693;SHT31;66984;47.404;18.836;2023-03-14T02:57:55;8.56;57.71
77693;SHT31;66984;47.404;18.836;2023-03-14T02:58:58;8.54;57.80
77693;SHT31;66984;47.404;18.836;2023-03-14T03:00:01;8.54;57.77
77693;SHT31;66984;47.404;18.836;2023-03-14T03:01:07;8.50;57.84
77693;SHT31;66984;47.404;18.836;2023-03-14T03:02:09;8.56;57.88
77693;SHT31;66984;47.404;18.836;2023-03-14T03:03:13;8.54;57.90
77693;SHT31;66984;47.404;18.836;2023-03-14T03:04:16;8.61;57.82
77693;SHT31;66984;47.404;18.836;2023-03-14T03:05:18;8.61;57.74
77693;SHT31;66984;47.404;18.836;2023-03-14T03:06:21;8.64;57.73
77693;SHT31;66984;47.404;18.836;2023-03-14T03:07:24;8.64;57.70
77693;SHT31;66984;47.404;18.836;2023-03-14T03:08:28;8.64;57.80
77693;SHT31;66984;47.404;18.836;2023-03-14T03:09:31;8.67;57.69
77693;SHT31;66984;47.404;18.836;2023-03-14T03:10:34;8.72;57.59
77693;SHT31;66984;47.404;18.836;2023-03-14T03:11:36;8.79;57.41
77693;SHT31;66984;47.404;18.836;2023-03-14T03:12:39;8.84;57.20
77693;SHT31;66984;47.404;18.836;2023-03-14T03:13:42;8.88;57.15
77693;SHT31;66984;47.404;18.836;2023-03-14T03:14:44;8.92;57.04
77693;SHT31;66984;47.404;18.836;2023-03-14T03:15:47;8.95;57.06
77693;SHT31;66984;47.404;18.836;2023-03-14T03:16:50;8.98;56.95
77693;SHT31;66984;47.404;18.836;2023-03-14T03:17:53;9.05;56.84
77693;SHT31;66984;47.404;18.836;2023-03-14T03:18:55;9.02;56.88
77693;SHT31;66984;47.404;18.836;2023-03-14T03:19:58;9.08;56.78
77693;SHT31;66984;47.404;18.836;2023-03-14T03:21:02;9.12;56.82
77693;SHT31;66984;47.404;18.836;2023-03-14T03:22:05;9.07;56.77
77693;SHT31;66984;47.404;18.836;2023-03-14T03:23:08;8.99;56.95
77693;SHT31;66984;47.404;18.836;2023-03-14T03:24:11;9.05;56.99
77693;SHT31;66984;47.404;18.836;2023-03-14T03:25:14;9.04;57.01
77693;SHT31;66984;47.404;18.836;2023-03-14T03:26:16;9.01;57.10
77693;SHT31;66984;47.404;18.836;2023-03-14T03:27:19;9.04;57.05
77693;SHT31;66984;47.404;18.836;2023-03-14T03:28:22;9.04;57.09
77693;SHT31;66984;47.404;18.836;2023-03-14T03:29:24;9.02;57.10
77693;SHT31;66984;47.404;18.836;2023-03-14T03:30:27;8.97;57.21
77693;SHT31;66984;47.404;18.836;2023-03-14T03:31:30;9.02;57.10
77693;SHT31;66984;47.404;18.836;2023-03-14T03:32:32;9.07;57.10
77693;SHT31;66984;47.404;18.836;2023-03-14T03:33:36;9.02;57.10
77693;SHT31;66984;47.404;18.836;2023-03-14T03:34:39;9.01;57.07
77693;SHT31;66984;47.404;18.836;2023-03-14T03:35:47;8.99;57.30
77693;SHT31;66984;47.404;18.836;2023-03-14T03:36:51;8.97;57.32
77693;SHT31;66984;47.404;18.836;2023-03-14T03:37:54;8.99;57.28
77693;SHT31;66984;47.404;18.836;2023-03-14T03:38:56;8.99;57.33
77693;SHT31;66984;47.404;18.836;2023-03-14T03:40:00;9.01;57.40
77693;SHT31;66984;47.404;18.836;2023-03-14T03:41:05;8.99;57.47
77693;SHT31;66984;47.404;18.836;2023-03-14T03:42:08;8.93;57.47
77693;SHT31;66984;47.404;18.836;2023-03-14T03:43:11;8.92;57.69
77693;SHT31;66984;47.404;18.836;2023-03-14T03:44:14;8.87;57.70
77693;SHT31;66984;47.404;18.836;2023-03-14T03:45:16;8.85;57.88
77693;SHT31;66984;47.404;18.836;2023-03-14T03:46:19;8.79;58.12
77693;SHT31;66984;47.404;18.836;2023-03-14T03:47:22;8.72;58.33
77693;SHT31;66984;47.404;18.836;2023-03-14T03:48:24;8.68;58.39
77693;SHT31;66984;47.404;18.836;2023-03-14T03:49:31;8.61;58.59
77693;SHT31;66984;47.404;18.836;2023-03-14T03:50:34;8.61;58.63
77693;SHT31;66984;47.404;18.836;2023-03-14T03:51:36;8.65;58.51
77693;SHT31;66984;47.404;18.836;2023-03-14T03:52:39;8.67;58.49
77693;SHT31;66984;47.404;18.836;2023-03-14T03:53:42;8.71;58.50
77693;SHT31;66984;47.404;18.836;2023-03-14T03:54:45;8.70;58.52
77693;SHT31;66984;47.404;18.836;2023-03-14T03:55:48;8.74;58.34
77693;SHT31;66984;47.404;18.836;2023-03-14T03:56:51;8.74;58.37
77693;SHT31;66984;47.404;18.836;2023-03-14T03:57:54;8.74;58.30
77693;SHT31;66984;47.404;18.836;2023-03-14T03:58:57;8.75;58.33
77693;SHT31;66984;47.404;18.836;2023-03-14T03:59:59;8.75;58.35
77693;SHT31;66984;47.404;18.836;2023-03-14T04:01:02;8.78;58.37
77693;SHT31;66984;47.404;18.836;2023-03-14T04:02:06;8.75;58.44
77693;SHT31;66984;47.404;18.836;2023-03-14T04:03:08;8.77;58.41
77693;SHT31;66984;47.404;18.836;2023-03-14T04:04:11;8.78;58.33
77693;SHT31;66984;47.404;18.836;2023-03-14T04:05:14;8.77;58.36
77693;SHT31;66984;47.404;18.836;2023-03-14T04:06:17;8.79;58.35
77693;SHT31;66984;47.404;18.836;2023-03-14T04:07:20;8.81;58.30
77693;SHT31;66984;47.404;18.836;2023-03-14T04:08:22;8.81;58.42
77693;SHT31;66984;47.404;18.836;2023-03-14T04:09:25;8.81;58.42
77693;SHT31;66984;47.404;18.836;2023-03-14T04:10:28;8.82;58.38
77693;SHT31;66984;47.404;18.836;2023-03-14T04:11:31;8.79;58.36
77693;SHT31;66984;47.404;18.836;2023-03-14T04:12:34;8.81;58.51
77693;SHT31;66984;47.404;18.836;2023-03-14T04:13:36;8.84;58.54
77693;SHT31;66984;47.404;18.836;2023-03-14T04:14:39;8.85;58.39
77693;SHT31;66984;47.404;18.836;2023-03-14T04:15:43;8.91;58.22
77693;SHT31;66984;47.404;18.836;2023-03-14T04:16:46;8.95;58.13
77693;SHT31;66984;47.404;18.836;2023-03-14T04:17:48;8.93;58.21
77693;SHT31;66984;47.404;18.836;2023-03-14T04:18:51;8.95;58.17
77693;SHT31;66984;47.404;18.836;2023-03-14T04:19:54;8.93;58.31
77693;SHT31;66984;47.404;18.836;2023-03-14T04:20:57;8.93;58.38
77693;SHT31;66984;47.404;18.836;2023-03-14T04:22:00;8.85;58.29
77693;SHT31;66984;47.404;18.836;2023-03-14T04:23:03;8.87;58.36
77693;SHT31;66984;47.404;18.836;2023-03-14T04:24:06;8.84;58.48
77693;SHT31;66984;47.404;18.836;2023-03-14T04:25:08;8.79;58.74
77693;SHT31;66984;47.404;18.836;2023-03-14T04:26:11;8.75;58.88
77693;SHT31;66984;47.404;18.836;2023-03-14T04:27:14;8.77;58.87
77693;SHT31;66984;47.404;18.836;2023-03-14T04:28:17;8.75;59.02
77693;SHT31;66984;47.404;18.836;2023-03-14T04:29:20;8.77;58.88
77693;SHT31;66984;47.404;18.836;2023-03-14T04:30:22;8.75;58.94
77693;SHT31;66984;47.404;18.836;2023-03-14T04:31:25;8.75;58.96
77693;SHT31;66984;47.404;18.836;2023-03-14T04:32:28;8.77;58.92
77693;SHT31;66984;47.404;18.836;2023-03-14T04:33:31;8.77;58.94
77693;SHT31;66984;47.404;18.836;2023-03-14T04:34:33;8.81;58.85
77693;SHT31;66984;47.404;18.836;2023-03-14T04:35:36;8.78;58.88
77693;SHT31;66984;47.404;18.836;2023-03-14T04:36:39;8.79;58.94
77693;SHT31;66984;47.404;18.836;2023-03-14T04:37:41;8.79;58.96
77693;SHT31;66984;47.404;18.836;2023-03-14T04:38:45;8.75;59.06
77693;SHT31;66984;47.404;18.836;2023-03-14T04:39:48;8.74;59.23
77693;SHT31;66984;47.404;18.836;2023-03-14T04:40:51;8.70;59.27
77693;SHT31;66984;47.404;18.836;2023-03-14T04:41:53;8.70;59.33
77693;SHT31;66984;47.404;18.836;2023-03-14T04:42:56;8.64;59.46
77693;SHT31;66984;47.404;18.836;2023-03-14T04:43:59;8.61;59.57
77693;SHT31;66984;47.404;18.836;2023-03-14T04:45:02;8.57;59.70
77693;SHT31;66984;47.404;18.836;2023-03-14T04:46:05;8.56;59.73
77693;SHT31;66984;47.404;18.836;2023-03-14T04:47:08;8.56;59.90
77693;SHT31;66984;47.404;18.836;2023-03-14T04:48:11;8.57;59.73
77693;SHT31;66984;47.404;18.836;2023-03-14T04:49:14;8.56;59.78
77693;SHT31;66984;47.404;18.836;2023-03-14T04:50:17;8.54;59.79
77693;SHT31;66984;47.404;18.836;2023-03-14T04:51:20;8.57;59.71
77693;SHT31;66984;47.404;18.836;2023-03-14T04:52:26;8.60;59.70
77693;SHT31;66984;47.404;18.836;2023-03-14T04:53:29;8.61;59.57
77693;SHT31;66984;47.404;18.836;2023-03-14T04:54:33;8.64;59.42
77693;SHT31;66984;47.404;18.836;2023-03-14T04:55:36;8.68;59.35
77693;SHT31;66984;47.404;18.836;2023-03-14T04:56:38;8.72;59.28
77693;SHT31;66984;47.404;18.836;2023-03-14T04:57:41;8.75;59.15
77693;SHT31;66984;47.404;18.836;2023-03-14T04:58:44;8.72;59.25
77693;SHT31;66984;47.404;18.836;2023-03-14T04:59:47;8.71;59.18
77693;SHT31;66984;47.404;18.836;2023-03-14T05:00:50;8.74;59.21
77693;SHT31;66984;47.404;18.836;2023-03-14T05:01:53;8.74;59.19
77693;SHT31;66984;47.404;18.836;2023-03-14T05:02:55;8.74;59.07
77693;SHT31;66984;47.404;18.836;2023-03-14T05:03:58;8.77;59.02
77693;SHT31;66984;47.404;18.836;2023-03-14T05:05:01;8.75;59.12
77693;SHT31;66984;47.404;18.836;2023-03-14T05:06:04;8.74;59.05
77693;SHT31;66984;47.404;18.836;2023-03-14T05:07:07;8.77;59.04
77693;SHT31;66984;47.404;18.836;2023-03-14T05:08:43;8.84;58.95
77693;SHT31;66984;47.404;18.836;2023-03-14T05:09:45;8.89;58.71
77693;SHT31;66984;47.404;18.836;2023-03-14T05:10:55;8.89;58.60
77693;SHT31;66984;47.404;18.836;2023-03-14T05:11:58;8.93;58.54
77693;SHT31;66984;47.404;18.836;2023-03-14T05:13:01;9.01;58.45
77693;SHT31;66984;47.404;18.836;2023-03-14T05:14:03;9.07;58.36
77693;SHT31;66984;47.404;18.836;2023-03-14T05:15:06;9.12;58.05
77693;SHT31;66984;47.404;18.836;2023-03-14T05:16:10;9.18;57.92
77693;SHT31;66984;47.404;18.836;2023-03-14T05:17:14;9.26;57.69
77693;SHT31;66984;47.404;18.836;2023-03-14T05:18:17;9.30;57.60
77693;SHT31;66984;47.404;18.836;2023-03-14T05:19:20;9.36;57.45
77693;SHT31;66984;47.404;18.836;2023-03-14T05:20:22;9.42;57.16
77693;SHT31;66984;47.404;18.836;2023-03-14T05:21:25;9.46;56.99
77693;SHT31;66984;47.404;18.836;2023-03-14T05:22:28;9.56;56.71
77693;SHT31;66984;47.404;18.836;2023-03-14T05:23:30;9.60;56.49
77693;SHT31;66984;47.404;18.836;2023-03-14T05:24:33;9.69;56.22
77693;SHT31;66984;47.404;18.836;2023-03-14T05:25:36;9.73;55.99
77693;SHT31;66984;47.404;18.836;2023-03-14T05:26:38;9.78;55.90
77693;SHT31;66984;47.404;18.836;2023-03-14T05:27:41;9.80;55.72
77693;SHT31;66984;47.404;18.836;2023-03-14T05:28:44;9.83;55.68
77693;SHT31;66984;47.404;18.836;2023-03-14T05:29:47;9.84;55.53
77693;SHT31;66984;47.404;18.836;2023-03-14T05:30:49;9.87;55.42
77693;SHT31;66984;47.404;18.836;2023-03-14T05:31:52;9.91;55.43
77693;SHT31;66984;47.404;18.836;2023-03-14T05:32:55;9.91;55.37
77693;SHT31;66984;47.404;18.836;2023-03-14T05:33:58;9.94;55.27
77693;SHT31;66984;47.404;18.836;2023-03-14T05:35:00;9.98;55.54
77693;SHT31;66984;47.404;18.836;2023-03-14T05:36:03;9.95;55.45
77693;SHT31;66984;47.404;18.836;2023-03-14T05:37:06;9.95;55.13
77693;SHT31;66984;47.404;18.836;2023-03-14T05:38:09;9.90;55.30
77693;SHT31;66984;47.404;18.836;2023-03-14T05:39:12;9.94;55.39
77693;SHT31;66984;47.404;18.836;2023-03-14T05:40:15;9.94;55.49
77693;SHT31;66984;47.404;18.836;2023-03-14T05:41:17;9.91;55.39
77693;SHT31;66984;47.404;18.836;2023-03-14T05:42:20;9.90;55.56
77693;SHT31;66984;47.404;18.836;2023-03-14T05:43:23;9.88;55.55
77693;SHT31;66984;47.404;18.836;2023-03-14T05:44:26;9.94;55.56
77693;SHT31;66984;47.404;18.836;2023-03-14T05:45:28;9.97;55.54
77693;SHT31;66984;47.404;18.836;2023-03-14T05:46:31;9.97;55.43
77693;SHT31;66984;47.404;18.836;2023-03-14T05:47:34;9.98;55.25
77693;SHT31;66984;47.404;18.836;2023-03-14T05:48:37;9.98;55.37
77693;SHT31;66984;47.404;18.836;2023-03-14T05:49:39;9.91;55.42
77693;SHT31;66984;47.404;18.836;2023-03-14T05:50:42;9.90;55.62
77693;SHT31;66984;47.404;18.836;2023-03-14T05:51:45;9.88;55.77
77693;SHT31;66984;47.404;18.836;2023-03-14T05:52:47;9.84;55.80
77693;SHT31;66984;47.404;18.836;2023-03-14T05:53:50;9.80;55.82
77693;SHT31;66984;47.404;18.836;2023-03-14T05:54:53;9.81;55.96
77693;SHT31;66984;47.404;18.836;2023-03-14T05:56:03;9.80;55.85
77693;SHT31;66984;47.404;18.836;2023-03-14T05:57:06;9.81;55.95
77693;SHT31;66984;47.404;18.836;2023-03-14T05:58:09;9.88;55.93
77693;SHT31;66984;47.404;18.836;2023-03-14T05:59:12;9.91;55.72
77693;SHT31;66984;47.404;18.836;2023-03-14T06:00:16;9.94;55.66
77693;SHT31;66984;47.404;18.836;2023-03-14T06:01:19;9.98;55.53
77693;SHT31;66984;47.404;18.836;2023-03-14T06:02:22;10.04;55.41
77693;SHT31;66984;47.404;18.836;2023-03-14T06:03:24;10.09;55.18
77693;SHT31;66984;47.404;18.836;2023-03-14T06:04:27;10.12;54.69
77693;SHT31;66984;47.404;18.836;2023-03-14T06:05:30;10.22;54.86
77693;SHT31;66984;47.404;18.836;2023-03-14T06:06:33;10.22;54.90
77693;SHT31;66984;47.404;18.836;2023-03-14T06:07:35;10.26;54.33
77693;SHT31;66984;47.404;18.836;2023-03-14T06:08:38;10.28;54.25
77693;SHT31;66984;47.404;18.836;2023-03-14T06:09:41;10.34;54.47
77693;SHT31;66984;47.404;18.836;2023-03-14T06:10:43;10.36;54.34
77693;SHT31;66984;47.404;18.836;2023-03-14T06:11:46;10.42;54.17
77693;SHT31;66984;47.404;18.836;2023-03-14T06:12:49;10.45;53.69
77693;SHT31;66984;47.404;18.836;2023-03-14T06:13:51;10.46;54.16
77693;SHT31;66984;47.404;18.836;2023-03-14T06:14:54;10.52;53.96
77693;SHT31;66984;47.404;18.836;2023-03-14T06:15:57;10.55;53.78
77693;SHT31;66984;47.404;18.836;2023-03-14T06:16:59;10.56;53.65
77693;SHT31;66984;47.404;18.836;2023-03-14T06:18:02;10.60;53.80
77693;SHT31;66984;47.404;18.836;2023-03-14T06:19:05;10.62;53.70
77693;SHT31;66984;47.404;18.836;2023-03-14T06:20:09;10.63;53.72
77693;SHT31;66984;47.404;18.836;2023-03-14T06:21:12;10.67;53.49
77693;SHT31;66984;47.404;18.836;2023-03-14T06:22:15;10.70;53.43
77693;SHT31;66984;47.404;18.836;2023-03-14T06:23:17;10.72;53.46
77693;SHT31;66984;47.404;18.836;2023-03-14T06:24:20;10.69;53.36
77693;SHT31;66984;47.404;18.836;2023-03-14T06:25:23;10.63;53.44
77693;SHT31;66984;47.404;18.836;2023-03-14T06:26:26;10.60;53.75
77693;SHT31;66984;47.404;18.836;2023-03-14T06:27:29;10.55;53.82
77693;SHT31;66984;47.404;18.836;2023-03-14T06:28:31;10.59;53.83
77693;SHT31;66984;47.404;18.836;2023-03-14T06:29:34;10.60;53.78
77693;SHT31;66984;47.404;18.836;2023-03-14T06:30:37;10.60;53.72
77693;SHT31;66984;47.404;18.836;2023-03-14T06:31:40;10.65;53.75
77693;SHT31;66984;47.404;18.836;2023-03-14T06:32:42;10.66;53.78
77693;SHT31;66984;47.404;18.836;2023-03-14T06:33:45;10.70;53.51
77693;SHT31;66984;47.404;18.836;2023-03-14T06:34:48;10.70;53.52
77693;SHT31;66984;47.404;18.836;2023-03-14T06:35:50;10.73;53.41
77693;SHT31;66984;47.404;18.836;2023-03-14T06:36:56;10.74;53.14
77693;SHT31;66984;47.404;18.836;2023-03-14T06:37:58;10.74;53.23
77693;SHT31;66984;47.404;18.836;2023-03-14T06:39:02;10.76;53.25
77693;SHT31;66984;47.404;18.836;2023-03-14T06:40:05;10.74;53.23
77693;SHT31;66984;47.404;18.836;2023-03-14T06:41:09;10.79;53.72
77693;SHT31;66984;47.404;18.836;2023-03-14T06:42:12;10.77;53.44
77693;SHT31;66984;47.404;18.836;2023-03-14T06:43:15;10.76;53.41
77693;SHT31;66984;47.404;18.836;2023-03-14T06:44:17;10.81;53.32
77693;SHT31;66984;47.404;18.836;2023-03-14T06:45:20;10.81;53.29
77693;SHT31;66984;47.404;18.836;2023-03-14T06:46:23;10.81;53.49
77693;SHT31;66984;47.404;18.836;2023-03-14T06:47:27;10.81;53.32
77693;SHT31;66984;47.404;18.836;2023-03-14T06:48:30;10.80;53.56
77693;SHT31;66984;47.404;18.836;2023-03-14T06:49:32;10.81;53.63
77693;SHT31;66984;47.404;18.836;2023-03-14T06:50:35;10.84;53.94
77693;SHT31;66984;47.404;18.836;2023-03-14T06:51:38;10.89;53.98
77693;SHT31;66984;47.404;18.836;2023-03-14T06:52:41;10.90;53.99
77693;SHT31;66984;47.404;18.836;2023-03-14T06:53:48;10.87;53.48
77693;SHT31;66984;47.404;18.836;2023-03-14T06:54:51;10.90;53.57
77693;SHT31;66984;47.404;18.836;2023-03-14T06:55:53;10.93;53.28
77693;SHT31;66984;47.404;18.836;2023-03-14T06:56:56;10.86;52.92
77693;SHT31;66984;47.404;18.836;2023-03-14T06:57:59;10.86;53.17
77693;SHT31;66984;47.404;18.836;2023-03-14T06:59:01;10.92;53.18
77693;SHT31;66984;47.404;18.836;2023-03-14T07:00:05;10.90;53.42
77693;SHT31;66984;47.404;18.836;2023-03-14T07:01:23;10.93;53.26
77693;SHT31;66984;47.404;18.836;2023-03-14T07:02:26;10.96;53.40
77693;SHT31;66984;47.404;18.836;2023-03-14T07:03:43;10.96;53.45
77693;SHT31;66984;47.404;18.836;2023-03-14T07:04:45;11.01;53.54
77693;SHT31;66984;47.404;18.836;2023-03-14T07:05:48;11.08;53.33
77693;SHT31;66984;47.404;18.836;2023-03-14T07:06:51;11.07;53.33
77693;SHT31;66984;47.404;18.836;2023-03-14T07:07:53;11.13;53.17
77693;SHT31;66984;47.404;18.836;2023-03-14T07:08:56;11.18;53.19
77693;SHT31;66984;47.404;18.836;2023-03-14T07:09:59;11.21;53.05
77693;SHT31;66984;47.404;18.836;2023-03-14T07:11:02;11.24;53.14
77693;SHT31;66984;47.404;18.836;2023-03-14T07:12:05;11.27;52.61
77693;SHT31;66984;47.404;18.836;2023-03-14T07:13:07;11.31;52.45
77693;SHT31;66984;47.404;18.836;2023-03-14T07:14:10;11.31;52.52
77693;SHT31;66984;47.404;18.836;2023-03-14T07:15:13;11.32;52.53
77693;SHT31;66984;47.404;18.836;2023-03-14T07:16:19;11.36;52.27
77693;SHT31;66984;47.404;18.836;2023-03-14T07:17:22;11.42;52.50
77693;SHT31;66984;47.404;18.836;2023-03-14T07:18:25;11.46;52.47
77693;SHT31;66984;47.404;18.836;2023-03-14T07:19:28;11.55;52.14
77693;SHT31;66984;47.404;18.836;2023-03-14T07:20:30;11.59;52.50
77693;SHT31;66984;47.404;18.836;2023-03-14T07:21:34;11.59;52.07
77693;SHT31;66984;47.404;18.836;2023-03-14T07:22:37;11.66;51.97
77693;SHT31;66984;47.404;18.836;2023-03-14T07:23:40;11.71;51.70
77693;SHT31;66984;47.404;18.836;2023-03-14T07:24:43;11.78;51.79
77693;SHT31;66984;47.404;18.836;2023-03-14T07:25:46;11.85;51.54
77693;SHT31;66984;47.404;18.836;2023-03-14T07:26:49;11.87;51.08
77693;SHT31;66984;47.404;18.836;2023-03-14T07:27:52;11.90;51.09
77693;SHT31;66984;47.404;18.836;2023-03-14T07:28:54;11.93;51.47
77693;SHT31;66984;47.404;18.836;2023-03-14T07:29:57;12.00;51.71
77693;SHT31;66984;47.404;18.836;2023-03-14T07:31:00;12.06;51.23
77693;SHT31;66984;47.404;18.836;2023-03-14T07:32:02;12.13;51.22
77693;SHT31;66984;47.404;18.836;2023-03-14T07:33:05;12.19;50.80
77693;SHT31;66984;47.404;18.836;2023-03-14T07:34:11;12.26;50.74
77693;SHT31;66984;47.404;18.836;2023-03-14T07:35:14;12.36;50.74
77693;SHT31;66984;47.404;18.836;2023-03-14T07:36:17;12.38;50.41
77693;SHT31;66984;47.404;18.836;2023-03-14T07:37:19;12.41;50.42
77693;SHT31;66984;47.404;18.836;2023-03-14T07:38:22;12.45;50.40
77693;SHT31;66984;47.404;18.836;2023-03-14T07:39:25;12.52;50.70
77693;SHT31;66984;47.404;18.836;2023-03-14T07:40:27;12.55;50.45
77693;SHT31;66984;47.404;18.836;2023-03-14T07:41:31;12.64;50.27
77693;SHT31;66984;47.404;18.836;2023-03-14T07:42:33;12.64;50.24
77693;SHT31;66984;47.404;18.836;2023-03-14T07:43:36;12.69;50.09
77693;SHT31;66984;47.404;18.836;2023-03-14T07:44:39;12.75;49.88
77693;SHT31;66984;47.404;18.836;2023-03-14T07:45:45;12.82;49.97
77693;SHT31;66984;47.404;18.836;2023-03-14T07:46:51;12.82;49.99